sensor_id;sensor_type;location;lat;lon;timestamp;pressure;altitude;pressure_sealevel;temperature
20289;BMP180;10303;51.960;8.372;2023-05-16T00:00:53;100448.00;;;15.10
20289;BMP180;10303;51.960;8.372;2023-05-16T00:03:19;100450.00;;;15.10
20289;BMP180;10303;51.960;8.372;2023-05-16T00:05:45;100450.00;;;15.10
20289;BMP180;10303;51.960;8.372;2023-05-16T00:08:12;100440.00;;;15.10
20289;BMP180;10303;51.960;8.372;2023-05-16T00:10:38;100444.00;;;15.10
20289;BMP180;10303;51.960;8.372;2023-05-16T00:13:05;100450.00;;;15.10
20289;BMP180;10303;51.960;8.372;2023-05-16T00:15:32;100441.00;;;15.10
20289;BMP180;10303;51.960;8.372;2023-05-16T00:17:58;100446.00;;;15.10
20289;BMP180;10303;51.960;8.372;2023-05-16T00:20:25;100448.00;;;15.00
20289;BMP180;10303;51.960;8.372;2023-05-16T00:22:53;100439.00;;;15.00
20289;BMP180;10303;51.960;8.372;2023-05-16T00:25:19;100437.00;;;15.00
20289;BMP180;10303;51.960;8.372;2023-05-16T00:27:46;100443.00;;;15.00
20289;BMP180;10303;51.960;8.372;2023-05-16T00:30:12;100435.00;;;15.00
20289;BMP180;10303;51.960;8.372;2023-05-16T00:32:38;100447.00;;;15.00
20289;BMP180;10303;51.960;8.372;2023-05-16T00:35:05;100447.00;;;15.00
20289;BMP180;10303;51.960;8.372;2023-05-16T00:37:31;100442.00;;;15.00
20289;BMP180;10303;51.960;8.372;2023-05-16T00:39:57;100443.00;;;14.90
20289;BMP180;10303;51.960;8.372;2023-05-16T00:42:23;100435.00;;;14.90
20289;BMP180;10303;51.960;8.372;2023-05-16T00:44:49;100437.00;;;14.90
20289;BMP180;10303;51.960;8.372;2023-05-16T00:47:15;100437.00;;;14.90
20289;BMP180;10303;51.960;8.372;2023-05-16T00:49:41;100447.00;;;14.90
20289;BMP180;10303;51.960;8.372;2023-05-16T00:52:08;100436.00;;;14.90
20289;BMP180;10303;51.960;8.372;2023-05-16T00:54:34;100436.00;;;14.90
20289;BMP180;10303;51.960;8.372;2023-05-16T00:57:00;100442.00;;;14.90
20289;BMP180;10303;51.960;8.372;2023-05-16T00:59:27;100446.00;;;14.90
20289;BMP180;10303;51.960;8.372;2023-05-16T01:01:52;100440.00;;;14.90
20289;BMP180;10303;51.960;8.372;2023-05-16T01:04:20;100444.00;;;14.90
20289;BMP180;10303;51.960;8.372;2023-05-16T01:06:46;100442.00;;;14.90
20289;BMP180;10303;51.960;8.372;2023-05-16T01:09:13;100436.00;;;14.90
20289;BMP180;10303;51.960;8.372;2023-05-16T01:23:43;100448.00;;;14.70
20289;BMP180;10303;51.960;8.372;2023-05-16T01:26:21;100442.00;;;14.80
20289;BMP180;10303;51.960;8.372;2023-05-16T01:28:49;100443.00;;;14.80
20289;BMP180;10303;51.960;8.372;2023-05-16T01:31:18;100439.00;;;14.80
20289;BMP180;10303;51.960;8.372;2023-05-16T01:33:45;100435.00;;;14.70
20289;BMP180;10303;51.960;8.372;2023-05-16T01:36:49;100441.00;;;14.70
20289;BMP180;10303;51.960;8.372;2023-05-16T01:39:33;100450.00;;;14.70
20289;BMP180;10303;51.960;8.372;2023-05-16T01:42:08;100450.00;;;14.70
20289;BMP180;10303;51.960;8.372;2023-05-16T01:48:01;100442.00;;;14.60
20289;BMP180;10303;51.960;8.372;2023-05-16T01:50:36;100455.00;;;14.70
20289;BMP180;10303;51.960;8.372;2023-05-16T01:53:07;100457.00;;;14.70
20289;BMP180;10303;51.960;8.372;2023-05-16T01:55:47;100468.00;;;14.60
20289;BMP180;10303;51.960;8.372;2023-05-16T01:58:18;100478.00;;;14.60
20289;BMP180;10303;51.960;8.372;2023-05-16T02:00:46;100483.00;;;14.60
20289;BMP180;10303;51.960;8.372;2023-05-16T02:03:12;100486.00;;;14.60
20289;BMP180;10303;51.960;8.372;2023-05-16T02:05:38;100496.00;;;14.50
20289;BMP180;10303;51.960;8.372;2023-05-16T02:08:05;100492.00;;;14.50
20289;BMP180;10303;51.960;8.372;2023-05-16T02:10:31;100504.00;;;14.40
20289;BMP180;10303;51.960;8.372;2023-05-16T02:12:58;100491.00;;;14.30
20289;BMP180;10303;51.960;8.372;2023-05-16T02:15:24;100507.00;;;14.20
20289;BMP180;10303;51.960;8.372;2023-05-16T02:17:50;100505.00;;;14.20
20289;BMP180;10303;51.960;8.372;2023-05-16T02:20:16;100512.00;;;14.10
20289;BMP180;10303;51.960;8.372;2023-05-16T02:22:42;100507.00;;;14.00
20289;BMP180;10303;51.960;8.372;2023-05-16T02:25:09;100510.00;;;14.00
20289;BMP180;10303;51.960;8.372;2023-05-16T02:27:36;100512.00;;;13.90
20289;BMP180;10303;51.960;8.372;2023-05-16T02:30:02;100500.00;;;13.90
20289;BMP180;10303;51.960;8.372;2023-05-16T02:32:31;100515.00;;;13.80
20289;BMP180;10303;51.960;8.372;2023-05-16T02:34:58;100506.00;;;13.80
20289;BMP180;10303;51.960;8.372;2023-05-16T02:37:24;100512.00;;;13.70
20289;BMP180;10303;51.960;8.372;2023-05-16T02:39:50;100516.00;;;13.70
20289;BMP180;10303;51.960;8.372;2023-05-16T02:42:16;100518.00;;;13.70
20289;BMP180;10303;51.960;8.372;2023-05-16T02:44:43;100526.00;;;13.70
20289;BMP180;10303;51.960;8.372;2023-05-16T02:47:09;100512.00;;;13.60
20289;BMP180;10303;51.960;8.372;2023-05-16T02:49:35;100532.00;;;13.60
20289;BMP180;10303;51.960;8.372;2023-05-16T02:52:01;100525.00;;;13.60
20289;BMP180;10303;51.960;8.372;2023-05-16T02:54:27;100531.00;;;13.60
20289;BMP180;10303;51.960;8.372;2023-05-16T02:56:53;100533.00;;;13.60
20289;BMP180;10303;51.960;8.372;2023-05-16T02:59:19;100534.00;;;13.50
20289;BMP180;10303;51.960;8.372;2023-05-16T03:01:45;100534.00;;;13.50
20289;BMP180;10303;51.960;8.372;2023-05-16T03:04:11;100536.00;;;13.50
20289;BMP180;10303;51.960;8.372;2023-05-16T03:06:37;100542.00;;;13.50
20289;BMP180;10303;51.960;8.372;2023-05-16T03:09:03;100546.00;;;13.50
20289;BMP180;10303;51.960;8.372;2023-05-16T03:11:29;100548.00;;;13.50
20289;BMP180;10303;51.960;8.372;2023-05-16T03:13:55;100546.00;;;13.50
20289;BMP180;10303;51.960;8.372;2023-05-16T03:16:23;100547.00;;;13.50
20289;BMP180;10303;51.960;8.372;2023-05-16T03:18:50;100552.00;;;13.40
20289;BMP180;10303;51.960;8.372;2023-05-16T03:21:16;100552.00;;;13.40
20289;BMP180;10303;51.960;8.372;2023-05-16T03:23:44;100554.00;;;13.40
20289;BMP180;10303;51.960;8.372;2023-05-16T03:26:10;100549.00;;;13.40
20289;BMP180;10303;51.960;8.372;2023-05-16T03:28:36;100556.00;;;13.30
20289;BMP180;10303;51.960;8.372;2023-05-16T03:31:02;100554.00;;;13.30
20289;BMP180;10303;51.960;8.372;2023-05-16T03:33:28;100560.00;;;13.30
20289;BMP180;10303;51.960;8.372;2023-05-16T03:35:54;100573.00;;;13.30
20289;BMP180;10303;51.960;8.372;2023-05-16T03:38:20;100565.00;;;13.30
20289;BMP180;10303;51.960;8.372;2023-05-16T03:40:47;100573.00;;;13.20
20289;BMP180;10303;51.960;8.372;2023-05-16T03:43:13;100581.00;;;13.20
20289;BMP180;10303;51.960;8.372;2023-05-16T03:45:39;100582.00;;;13.20
20289;BMP180;10303;51.960;8.372;2023-05-16T03:48:05;100580.00;;;13.20
20289;BMP180;10303;51.960;8.372;2023-05-16T03:50:31;100589.00;;;13.20
20289;BMP180;10303;51.960;8.372;2023-05-16T03:52:57;100588.00;;;13.10
20289;BMP180;10303;51.960;8.372;2023-05-16T03:55:23;100591.00;;;13.10
20289;BMP180;10303;51.960;8.372;2023-05-16T03:57:49;100599.00;;;13.10
20289;BMP180;10303;51.960;8.372;2023-05-16T04:00:17;100602.00;;;13.10
20289;BMP180;10303;51.960;8.372;2023-05-16T04:02:43;100604.00;;;13.10
20289;BMP180;10303;51.960;8.372;2023-05-16T04:05:11;100602.00;;;13.10
20289;BMP180;10303;51.960;8.372;2023-05-16T04:07:39;100613.00;;;13.00
20289;BMP180;10303;51.960;8.372;2023-05-16T04:10:06;100620.00;;;13.00
20289;BMP180;10303;51.960;8.372;2023-05-16T04:12:32;100623.00;;;13.00
20289;BMP180;10303;51.960;8.372;2023-05-16T04:14:58;100616.00;;;12.90
20289;BMP180;10303;51.960;8.372;2023-05-16T04:17:24;100614.00;;;12.90
20289;BMP180;10303;51.960;8.372;2023-05-16T04:19:50;100627.00;;;12.90
20289;BMP180;10303;51.960;8.372;2023-05-16T04:22:16;100617.00;;;12.80
20289;BMP180;10303;51.960;8.372;2023-05-16T04:24:42;100629.00;;;12.80
20289;BMP180;10303;51.960;8.372;2023-05-16T04:27:08;100630.00;;;12.80
20289;BMP180;10303;51.960;8.372;2023-05-16T04:29:35;100629.00;;;12.80
20289;BMP180;10303;51.960;8.372;2023-05-16T04:32:01;100632.00;;;12.80
20289;BMP180;10303;51.960;8.372;2023-05-16T04:34:28;100631.00;;;12.70
20289;BMP180;10303;51.960;8.372;2023-05-16T04:36:54;100646.00;;;12.70
20289;BMP180;10303;51.960;8.372;2023-05-16T04:39:20;100646.00;;;12.70
20289;BMP180;10303;51.960;8.372;2023-05-16T04:41:47;100655.00;;;12.70
20289;BMP180;10303;51.960;8.372;2023-05-16T04:44:13;100660.00;;;12.70
20289;BMP180;10303;51.960;8.372;2023-05-16T04:46:39;100658.00;;;12.70
20289;BMP180;10303;51.960;8.372;2023-05-16T04:49:05;100662.00;;;12.70
20289;BMP180;10303;51.960;8.372;2023-05-16T04:51:31;100665.00;;;12.70
20289;BMP180;10303;51.960;8.372;2023-05-16T04:53:59;100669.00;;;12.70
20289;BMP180;10303;51.960;8.372;2023-05-16T04:56:25;100674.00;;;12.70
20289;BMP180;10303;51.960;8.372;2023-05-16T04:58:52;100678.00;;;12.60
20289;BMP180;10303;51.960;8.372;2023-05-16T05:01:19;100674.00;;;12.60
20289;BMP180;10303;51.960;8.372;2023-05-16T05:03:45;100679.00;;;12.60
20289;BMP180;10303;51.960;8.372;2023-05-16T05:06:12;100679.00;;;12.60
20289;BMP180;10303;51.960;8.372;2023-05-16T05:08:38;100688.00;;;12.60
20289;BMP180;10303;51.960;8.372;2023-05-16T05:11:04;100691.00;;;12.60
20289;BMP180;10303;51.960;8.372;2023-05-16T05:13:30;100684.00;;;12.50
20289;BMP180;10303;51.960;8.372;2023-05-16T05:15:56;100689.00;;;12.50
20289;BMP180;10303;51.960;8.372;2023-05-16T05:18:22;100690.00;;;12.50
20289;BMP180;10303;51.960;8.372;2023-05-16T05:20:49;100690.00;;;12.50
20289;BMP180;10303;51.960;8.372;2023-05-16T05:23:15;100699.00;;;12.50
20289;BMP180;10303;51.960;8.372;2023-05-16T05:25:41;100695.00;;;12.50
20289;BMP180;10303;51.960;8.372;2023-05-16T05:28:07;100699.00;;;12.60
20289;BMP180;10303;51.960;8.372;2023-05-16T05:30:33;100703.00;;;12.60
20289;BMP180;10303;51.960;8.372;2023-05-16T05:32:59;100711.00;;;12.70
20289;BMP180;10303;51.960;8.372;2023-05-16T05:35:24;100716.00;;;12.70
20289;BMP180;10303;51.960;8.372;2023-05-16T05:37:51;100710.00;;;12.70
20289;BMP180;10303;51.960;8.372;2023-05-16T05:40:17;100713.00;;;12.70
20289;BMP180;10303;51.960;8.372;2023-05-16T05:42:43;100721.00;;;12.70
20289;BMP180;10303;51.960;8.372;2023-05-16T05:45:10;100716.00;;;12.80
20289;BMP180;10303;51.960;8.372;2023-05-16T05:47:36;100729.00;;;12.80
20289;BMP180;10303;51.960;8.372;2023-05-16T05:50:03;100725.00;;;12.80
20289;BMP180;10303;51.960;8.372;2023-05-16T05:52:30;100724.00;;;12.80
20289;BMP180;10303;51.960;8.372;2023-05-16T05:54:56;100729.00;;;12.80
20289;BMP180;10303;51.960;8.372;2023-05-16T05:57:24;100733.00;;;12.80
20289;BMP180;10303;51.960;8.372;2023-05-16T05:59:50;100725.00;;;12.80
20289;BMP180;10303;51.960;8.372;2023-05-16T06:02:16;100723.00;;;12.80
20289;BMP180;10303;51.960;8.372;2023-05-16T06:04:42;100726.00;;;12.80
20289;BMP180;10303;51.960;8.372;2023-05-16T06:07:10;100729.00;;;12.80
20289;BMP180;10303;51.960;8.372;2023-05-16T06:09:36;100732.00;;;12.90
20289;BMP180;10303;51.960;8.372;2023-05-16T06:12:02;100730.00;;;12.90
20289;BMP180;10303;51.960;8.372;2023-05-16T06:14:29;100742.00;;;13.00
20289;BMP180;10303;51.960;8.372;2023-05-16T06:16:55;100747.00;;;13.00
20289;BMP180;10303;51.960;8.372;2023-05-16T06:19:22;100748.00;;;12.90
20289;BMP180;10303;51.960;8.372;2023-05-16T06:21:48;100747.00;;;12.90
20289;BMP180;10303;51.960;8.372;2023-05-16T06:24:14;100759.00;;;12.90
20289;BMP180;10303;51.960;8.372;2023-05-16T06:26:40;100758.00;;;12.90
20289;BMP180;10303;51.960;8.372;2023-05-16T06:29:06;100758.00;;;13.00
20289;BMP180;10303;51.960;8.372;2023-05-16T06:31:32;100764.00;;;13.00
20289;BMP180;10303;51.960;8.372;2023-05-16T06:33:58;100759.00;;;13.00
20289;BMP180;10303;51.960;8.372;2023-05-16T06:36:24;100773.00;;;13.10
20289;BMP180;10303;51.960;8.372;2023-05-16T06:38:50;100765.00;;;13.20
20289;BMP180;10303;51.960;8.372;2023-05-16T06:41:16;100772.00;;;13.30
20289;BMP180;10303;51.960;8.372;2023-05-16T06:43:42;100772.00;;;13.30
20289;BMP180;10303;51.960;8.372;2023-05-16T06:46:08;100768.00;;;13.40
20289;BMP180;10303;51.960;8.372;2023-05-16T06:48:34;100774.00;;;13.40
20289;BMP180;10303;51.960;8.372;2023-05-16T06:51:00;100772.00;;;13.50
20289;BMP180;10303;51.960;8.372;2023-05-16T06:53:26;100780.00;;;13.50
20289;BMP180;10303;51.960;8.372;2023-05-16T06:55:53;100774.00;;;13.60
20289;BMP180;10303;51.960;8.372;2023-05-16T06:58:19;100773.00;;;13.60
20289;BMP180;10303;51.960;8.372;2023-05-16T07:00:45;100779.00;;;13.70
20289;BMP180;10303;51.960;8.372;2023-05-16T07:03:12;100777.00;;;13.70
20289;BMP180;10303;51.960;8.372;2023-05-16T07:05:38;100777.00;;;13.80
20289;BMP180;10303;51.960;8.372;2023-05-16T07:08:04;100772.00;;;13.90
20289;BMP180;10303;51.960;8.372;2023-05-16T07:10:30;100784.00;;;14.00
20289;BMP180;10303;51.960;8.372;2023-05-16T07:12:56;100781.00;;;14.10
20289;BMP180;10303;51.960;8.372;2023-05-16T07:15:22;100785.00;;;14.20
20289;BMP180;10303;51.960;8.372;2023-05-16T07:17:48;100779.00;;;14.30
20289;BMP180;10303;51.960;8.372;2023-05-16T07:20:15;100787.00;;;14.40
20289;BMP180;10303;51.960;8.372;2023-05-16T07:22:41;100784.00;;;14.50
20289;BMP180;10303;51.960;8.372;2023-05-16T07:25:07;100797.00;;;14.50
20289;BMP180;10303;51.960;8.372;2023-05-16T07:27:38;100784.00;;;14.50
20289;BMP180;10303;51.960;8.372;2023-05-16T07:30:08;100795.00;;;14.50
20289;BMP180;10303;51.960;8.372;2023-05-16T07:32:35;100797.00;;;14.50
20289;BMP180;10303;51.960;8.372;2023-05-16T07:35:01;100796.00;;;14.50
20289;BMP180;10303;51.960;8.372;2023-05-16T07:37:27;100797.00;;;14.40
20289;BMP180;10303;51.960;8.372;2023-05-16T07:39:53;100799.00;;;14.40
20289;BMP180;10303;51.960;8.372;2023-05-16T07:42:18;100800.00;;;14.40
20289;BMP180;10303;51.960;8.372;2023-05-16T07:44:45;100804.00;;;14.30
20289;BMP180;10303;51.960;8.372;2023-05-16T07:47:11;100789.00;;;14.30
20289;BMP180;10303;51.960;8.372;2023-05-16T07:49:37;100797.00;;;14.30
20289;BMP180;10303;51.960;8.372;2023-05-16T07:52:03;100792.00;;;14.40
20289;BMP180;10303;51.960;8.372;2023-05-16T07:54:31;100793.00;;;14.50
20289;BMP180;10303;51.960;8.372;2023-05-16T07:56:58;100794.00;;;14.70
20289;BMP180;10303;51.960;8.372;2023-05-16T07:59:24;100790.00;;;14.90
20289;BMP180;10303;51.960;8.372;2023-05-16T08:01:50;100792.00;;;14.90
20289;BMP180;10303;51.960;8.372;2023-05-16T08:04:16;100781.00;;;14.90
20289;BMP180;10303;51.960;8.372;2023-05-16T08:06:42;100796.00;;;14.90
20289;BMP180;10303;51.960;8.372;2023-05-16T08:09:08;100797.00;;;14.90
20289;BMP180;10303;51.960;8.372;2023-05-16T08:11:34;100801.00;;;14.90
20289;BMP180;10303;51.960;8.372;2023-05-16T08:14:00;100797.00;;;14.80
20289;BMP180;10303;51.960;8.372;2023-05-16T08:16:26;100804.00;;;14.80
20289;BMP180;10303;51.960;8.372;2023-05-16T08:18:52;100806.00;;;14.90
20289;BMP180;10303;51.960;8.372;2023-05-16T08:21:18;100809.00;;;15.10
20289;BMP180;10303;51.960;8.372;2023-05-16T08:23:44;100806.00;;;15.20
20289;BMP180;10303;51.960;8.372;2023-05-16T08:26:10;100811.00;;;15.20
20289;BMP180;10303;51.960;8.372;2023-05-16T08:28:36;100810.00;;;15.20
20289;BMP180;10303;51.960;8.372;2023-05-16T08:31:02;100817.00;;;15.20
20289;BMP180;10303;51.960;8.372;2023-05-16T08:33:28;100812.00;;;15.20
20289;BMP180;10303;51.960;8.372;2023-05-16T08:35:54;100812.00;;;15.40
20289;BMP180;10303;51.960;8.372;2023-05-16T08:38:20;100805.00;;;15.60
20289;BMP180;10303;51.960;8.372;2023-05-16T08:40:46;100811.00;;;15.80
20289;BMP180;10303;51.960;8.372;2023-05-16T08:43:12;100811.00;;;16.10
20289;BMP180;10303;51.960;8.372;2023-05-16T08:45:40;100803.00;;;16.40
20289;BMP180;10303;51.960;8.372;2023-05-16T08:48:09;100810.00;;;16.40
20289;BMP180;10303;51.960;8.372;2023-05-16T08:50:36;100819.00;;;16.40
20289;BMP180;10303;51.960;8.372;2023-05-16T08:53:08;100812.00;;;16.20
20289;BMP180;10303;51.960;8.372;2023-05-16T08:55:36;100810.00;;;16.10
20289;BMP180;10303;51.960;8.372;2023-05-16T08:58:03;100810.00;;;16.00
20289;BMP180;10303;51.960;8.372;2023-05-16T09:00:29;100808.00;;;16.00
20289;BMP180;10303;51.960;8.372;2023-05-16T09:02:57;100809.00;;;16.10
20289;BMP180;10303;51.960;8.372;2023-05-16T09:05:23;100820.00;;;16.20
20289;BMP180;10303;51.960;8.372;2023-05-16T09:07:50;100818.00;;;16.40
20289;BMP180;10303;51.960;8.372;2023-05-16T09:10:16;100806.00;;;16.70
20289;BMP180;10303;51.960;8.372;2023-05-16T09:12:42;100815.00;;;16.90
20289;BMP180;10303;51.960;8.372;2023-05-16T09:15:09;100818.00;;;17.00
20289;BMP180;10303;51.960;8.372;2023-05-16T09:17:41;100824.00;;;17.00
20289;BMP180;10303;51.960;8.372;2023-05-16T09:20:18;100815.00;;;16.90
20289;BMP180;10303;51.960;8.372;2023-05-16T09:22:57;100807.00;;;16.80
20289;BMP180;10303;51.960;8.372;2023-05-16T09:25:26;100814.00;;;17.00
20289;BMP180;10303;51.960;8.372;2023-05-16T09:27:58;100808.00;;;17.10
20289;BMP180;10303;51.960;8.372;2023-05-16T09:30:29;100798.00;;;17.30
20289;BMP180;10303;51.960;8.372;2023-05-16T09:32:56;100814.00;;;17.40
20289;BMP180;10303;51.960;8.372;2023-05-16T09:35:22;100817.00;;;17.40
20289;BMP180;10303;51.960;8.372;2023-05-16T09:37:50;100808.00;;;17.30
20289;BMP180;10303;51.960;8.372;2023-05-16T09:40:22;100808.00;;;17.30
20289;BMP180;10303;51.960;8.372;2023-05-16T09:43:03;100804.00;;;17.50
20289;BMP180;10303;51.960;8.372;2023-05-16T09:45:31;100804.00;;;17.80
20289;BMP180;10303;51.960;8.372;2023-05-16T09:48:08;100797.00;;;18.00
20289;BMP180;10303;51.960;8.372;2023-05-16T09:50:36;100792.00;;;18.20
20289;BMP180;10303;51.960;8.372;2023-05-16T09:53:03;100812.00;;;18.30
20289;BMP180;10303;51.960;8.372;2023-05-16T09:55:30;100815.00;;;18.40
20289;BMP180;10303;51.960;8.372;2023-05-16T09:57:57;100808.00;;;18.40
20289;BMP180;10303;51.960;8.372;2023-05-16T10:00:31;100806.00;;;18.40
20289;BMP180;10303;51.960;8.372;2023-05-16T10:02:59;100807.00;;;18.60
20289;BMP180;10303;51.960;8.372;2023-05-16T10:05:30;100808.00;;;18.80
20289;BMP180;10303;51.960;8.372;2023-05-16T10:07:56;100797.00;;;18.80
20289;BMP180;10303;51.960;8.372;2023-05-16T10:10:24;100802.00;;;18.80
20289;BMP180;10303;51.960;8.372;2023-05-16T10:12:55;100806.00;;;18.70
20289;BMP180;10303;51.960;8.372;2023-05-16T10:15:23;100812.00;;;18.70
20289;BMP180;10303;51.960;8.372;2023-05-16T10:17:52;100803.00;;;18.70
20289;BMP180;10303;51.960;8.372;2023-05-16T10:20:22;100802.00;;;18.70
20289;BMP180;10303;51.960;8.372;2023-05-16T10:22:50;100807.00;;;18.60
20289;BMP180;10303;51.960;8.372;2023-05-16T10:25:29;100804.00;;;18.50
20289;BMP180;10303;51.960;8.372;2023-05-16T10:27:58;100809.00;;;18.50
20289;BMP180;10303;51.960;8.372;2023-05-16T10:30:24;100807.00;;;18.40
20289;BMP180;10303;51.960;8.372;2023-05-16T10:32:52;100806.00;;;18.40
20289;BMP180;10303;51.960;8.372;2023-05-16T10:35:19;100804.00;;;18.50
20289;BMP180;10303;51.960;8.372;2023-05-16T10:37:47;100793.00;;;18.80
20289;BMP180;10303;51.960;8.372;2023-05-16T10:40:15;100788.00;;;19.20
20289;BMP180;10303;51.960;8.372;2023-05-16T10:43:01;100792.00;;;19.50
20289;BMP180;10303;51.960;8.372;2023-05-16T10:45:29;100797.00;;;19.70
20289;BMP180;10303;51.960;8.372;2023-05-16T10:48:01;100795.00;;;19.70
20289;BMP180;10303;51.960;8.372;2023-05-16T10:50:41;100797.00;;;19.60
20289;BMP180;10303;51.960;8.372;2023-05-16T10:58:39;100812.00;;;19.10
20289;BMP180;10303;51.960;8.372;2023-05-16T11:17:10;100811.00;;;19.10
20289;BMP180;10303;51.960;8.372;2023-05-16T11:19:56;100803.00;;;19.10
20289;BMP180;10303;51.960;8.372;2023-05-16T11:22:37;100807.00;;;19.10
20289;BMP180;10303;51.960;8.372;2023-05-16T11:25:09;100817.00;;;19.00
20289;BMP180;10303;51.960;8.372;2023-05-16T11:27:41;100809.00;;;18.90
20289;BMP180;10303;51.960;8.372;2023-05-16T11:30:13;100807.00;;;18.80
20289;BMP180;10303;51.960;8.372;2023-05-16T11:32:43;100797.00;;;18.80
20289;BMP180;10303;51.960;8.372;2023-05-16T11:35:12;100803.00;;;19.00
20289;BMP180;10303;51.960;8.372;2023-05-16T11:37:39;100803.00;;;19.10
20289;BMP180;10303;51.960;8.372;2023-05-16T11:40:07;100807.00;;;19.30
20289;BMP180;10303;51.960;8.372;2023-05-16T11:42:43;100798.00;;;19.30
20289;BMP180;10303;51.960;8.372;2023-05-16T11:45:14;100805.00;;;19.30
20289;BMP180;10303;51.960;8.372;2023-05-16T11:47:42;100795.00;;;19.50
20289;BMP180;10303;51.960;8.372;2023-05-16T11:50:17;100797.00;;;19.60
20289;BMP180;10303;51.960;8.372;2023-05-16T11:52:49;100796.00;;;19.70
20289;BMP180;10303;51.960;8.372;2023-05-16T11:55:26;100808.00;;;19.70
20289;BMP180;10303;51.960;8.372;2023-05-16T11:57:53;100806.00;;;19.80
20289;BMP180;10303;51.960;8.372;2023-05-16T12:00:22;100794.00;;;20.00
20289;BMP180;10303;51.960;8.372;2023-05-16T12:02:54;100791.00;;;20.10
20289;BMP180;10303;51.960;8.372;2023-05-16T12:05:21;100799.00;;;20.10
20289;BMP180;10303;51.960;8.372;2023-05-16T12:07:50;100804.00;;;20.10
20289;BMP180;10303;51.960;8.372;2023-05-16T12:10:19;100807.00;;;20.20
20289;BMP180;10303;51.960;8.372;2023-05-16T12:12:49;100804.00;;;20.30
20289;BMP180;10303;51.960;8.372;2023-05-16T12:15:18;100798.00;;;20.50
20289;BMP180;10303;51.960;8.372;2023-05-16T12:17:45;100805.00;;;20.70
20289;BMP180;10303;51.960;8.372;2023-05-16T12:20:14;100787.00;;;20.70
20289;BMP180;10303;51.960;8.372;2023-05-16T12:22:42;100793.00;;;20.90
20289;BMP180;10303;51.960;8.372;2023-05-16T12:25:32;100788.00;;;20.80
20289;BMP180;10303;51.960;8.372;2023-05-16T12:28:00;100796.00;;;20.80
20289;BMP180;10303;51.960;8.372;2023-05-16T12:30:30;100791.00;;;20.80
20289;BMP180;10303;51.960;8.372;2023-05-16T12:32:57;100797.00;;;20.80
20289;BMP180;10303;51.960;8.372;2023-05-16T12:35:25;100799.00;;;20.70
20289;BMP180;10303;51.960;8.372;2023-05-16T12:37:54;100797.00;;;20.50
20289;BMP180;10303;51.960;8.372;2023-05-16T12:40:21;100809.00;;;20.40
20289;BMP180;10303;51.960;8.372;2023-05-16T12:42:52;100812.00;;;20.20
20289;BMP180;10303;51.960;8.372;2023-05-16T12:45:21;100809.00;;;20.10
20289;BMP180;10303;51.960;8.372;2023-05-16T12:47:48;100804.00;;;20.00
20289;BMP180;10303;51.960;8.372;2023-05-16T12:50:15;100812.00;;;19.90
20289;BMP180;10303;51.960;8.372;2023-05-16T12:52:53;100822.00;;;19.80
20289;BMP180;10303;51.960;8.372;2023-05-16T12:55:23;100816.00;;;19.80
20289;BMP180;10303;51.960;8.372;2023-05-16T12:57:49;100819.00;;;19.70
20289;BMP180;10303;51.960;8.372;2023-05-16T13:00:18;100819.00;;;19.60
20289;BMP180;10303;51.960;8.372;2023-05-16T13:02:46;100819.00;;;19.50
20289;BMP180;10303;51.960;8.372;2023-05-16T13:05:12;100818.00;;;19.40
20289;BMP180;10303;51.960;8.372;2023-05-16T13:07:39;100818.00;;;19.40
20289;BMP180;10303;51.960;8.372;2023-05-16T13:10:10;100826.00;;;19.40
20289;BMP180;10303;51.960;8.372;2023-05-16T13:12:40;100818.00;;;19.50
20289;BMP180;10303;51.960;8.372;2023-05-16T13:15:08;100814.00;;;19.60
20289;BMP180;10303;51.960;8.372;2023-05-16T13:17:36;100819.00;;;19.60
20289;BMP180;10303;51.960;8.372;2023-05-16T13:20:04;100820.00;;;19.50
20289;BMP180;10303;51.960;8.372;2023-05-16T13:22:41;100822.00;;;19.40
20289;BMP180;10303;51.960;8.372;2023-05-16T13:25:08;100817.00;;;19.40
20289;BMP180;10303;51.960;8.372;2023-05-16T13:27:35;100828.00;;;19.30
20289;BMP180;10303;51.960;8.372;2023-05-16T13:30:02;100821.00;;;19.30
20289;BMP180;10303;51.960;8.372;2023-05-16T13:32:31;100828.00;;;19.40
20289;BMP180;10303;51.960;8.372;2023-05-16T13:34:57;100822.00;;;19.40
20289;BMP180;10303;51.960;8.372;2023-05-16T13:37:23;100830.00;;;19.40
20289;BMP180;10303;51.960;8.372;2023-05-16T13:39:49;100833.00;;;19.40
20289;BMP180;10303;51.960;8.372;2023-05-16T13:42:15;100835.00;;;19.40
20289;BMP180;10303;51.960;8.372;2023-05-16T13:44:41;100823.00;;;19.30
20289;BMP180;10303;51.960;8.372;2023-05-16T13:47:08;100827.00;;;19.10
20289;BMP180;10303;51.960;8.372;2023-05-16T13:49:33;100834.00;;;19.10
20289;BMP180;10303;51.960;8.372;2023-05-16T13:51:59;100831.00;;;19.00
20289;BMP180;10303;51.960;8.372;2023-05-16T13:54:26;100843.00;;;18.90
20289;BMP180;10303;51.960;8.372;2023-05-16T13:56:52;100832.00;;;18.80
20289;BMP180;10303;51.960;8.372;2023-05-16T13:59:18;100829.00;;;18.80
20289;BMP180;10303;51.960;8.372;2023-05-16T14:01:44;100834.00;;;18.80
20289;BMP180;10303;51.960;8.372;2023-05-16T14:04:10;100834.00;;;18.80
20289;BMP180;10303;51.960;8.372;2023-05-16T14:06:37;100836.00;;;18.80
20289;BMP180;10303;51.960;8.372;2023-05-16T14:09:03;100839.00;;;18.70
20289;BMP180;10303;51.960;8.372;2023-05-16T14:11:29;100847.00;;;18.70
20289;BMP180;10303;51.960;8.372;2023-05-16T14:13:56;100853.00;;;18.70
20289;BMP180;10303;51.960;8.372;2023-05-16T14:16:22;100852.00;;;18.60
20289;BMP180;10303;51.960;8.372;2023-05-16T14:18:48;100860.00;;;18.60
20289;BMP180;10303;51.960;8.372;2023-05-16T14:21:14;100861.00;;;18.60
20289;BMP180;10303;51.960;8.372;2023-05-16T14:23:40;100857.00;;;18.60
20289;BMP180;10303;51.960;8.372;2023-05-16T14:26:06;100855.00;;;18.60
20289;BMP180;10303;51.960;8.372;2023-05-16T14:28:32;100860.00;;;18.60
20289;BMP180;10303;51.960;8.372;2023-05-16T14:30:59;100857.00;;;18.60
20289;BMP180;10303;51.960;8.372;2023-05-16T14:33:25;100873.00;;;18.60
20289;BMP180;10303;51.960;8.372;2023-05-16T14:35:52;100862.00;;;18.60